Time;durP1;ratioP1;P1;durP2;ratioP2;P2;SDS_P1;SDS_P2;PMS_P1;PMS_P2;Temp;Humidity;BMP_temperature;BMP_pressure;BME280_temperature;BME280_humidity;BME280_pressure;Samples;Min_cycle;Max_cycle;Signal;HPM_P1;HPM_P2
2021/07/14 00:07:29;;;;;;;20.1;12.5;;;;;;;21.16;100;98029.46;;;;
2021/07/14 00:17:41;;;;;;;15.5;12.9;;;;;;;20.99;100;98004.38;;;;
2021/07/14 00:27:29;;;;;;;15.8;12.5;;;;;;;20.77;100;98010.98;;;;
2021/07/14 00:37:30;;;;;;;17;12.8;;;;;;;20.81;100;98019.2;;;;
2021/07/14 00:47:31;;;;;;;13.5;11.7;;;;;;;20.72;100;98021.55;;;;
2021/07/14 00:57:31;;;;;;;14.2;10.7;;;;;;;20.44;100;98031.22;;;;
2021/07/14 01:07:31;;;;;;;12.1;10.8;;;;;;;20.38;100;98030.03;;;;
2021/07/14 01:17:30;;;;;;;19.9;12;;;;;;;20.35;100;98024.55;;;;
2021/07/14 01:27:34;;;;;;;13.2;10.8;;;;;;;20.23;100;98017.45;;;;
2021/07/14 01:37:30;;;;;;;15.8;11.6;;;;;;;20.11;100;98004.09;;;;
2021/07/14 01:47:30;;;;;;;14.8;11.3;;;;;;;20.04;100;98009.52;;;;
2021/07/14 01:57:30;;;;;;;14.1;10.8;;;;;;;19.98;100;98014.59;;;;
2021/07/14 02:07:30;;;;;;;13.8;10.9;;;;;;;19.97;100;98013.02;;;;
2021/07/14 02:17:30;;;;;;;13;10.6;;;;;;;19.94;100;98021.98;;;;
2021/07/14 02:27:30;;;;;;;14.3;10.3;;;;;;;19.85;100;98016.09;;;;
2021/07/14 02:37:30;;;;;;;16;10.9;;;;;;;19.73;100;98021.86;;;;
2021/07/14 02:47:30;;;;;;;14.5;11.5;;;;;;;19.76;100;98026.56;;;;
2021/07/14 02:57:30;;;;;;;13.9;10.9;;;;;;;19.75;100;98030.45;;;;
2021/07/14 03:07:30;;;;;;;13.7;12.3;;;;;;;19.58;100;98025.66;;;;
2021/07/14 03:17:30;;;;;;;11.9;10.6;;;;;;;19.66;100;98021.81;;;;
2021/07/14 03:27:30;;;;;;;13.6;11.5;;;;;;;19.87;100;98008.27;;;;
2021/07/14 03:37:30;;;;;;;16.8;12.8;;;;;;;19.86;100;98003.95;;;;
2021/07/14 03:47:30;;;;;;;15.7;12.4;;;;;;;20.2;100;97996.3;;;;
2021/07/14 03:57:30;;;;;;;14;12;;;;;;;20.41;100;98010.09;;;;
2021/07/14 04:07:30;;;;;;;13;8.8;;;;;;;20.65;100;98011.36;;;;
2021/07/14 04:17:30;;;;;;;12.7;10.9;;;;;;;21.12;100;98015.76;;;;
2021/07/14 04:27:31;;;;;;;12.6;10.5;;;;;;;21.47;100;98017.72;;;;
2021/07/14 04:37:31;;;;;;;13.6;11.5;;;;;;;21.89;100;98012.17;;;;
2021/07/14 04:47:31;;;;;;;15.5;12.6;;;;;;;22.3;100;98009.7;;;;
2021/07/14 04:57:31;;;;;;;13.4;10.7;;;;;;;22.5;100;98012.74;;;;
2021/07/14 05:07:32;;;;;;;13.9;11.3;;;;;;;22.65;100;98032.69;;;;
2021/07/14 05:17:32;;;;;;;20.4;14.2;;;;;;;23.12;100;98036.77;;;;
2021/07/14 05:27:33;;;;;;;24.9;10.9;;;;;;;23.66;100;98027.7;;;;
2021/07/14 05:37:33;;;;;;;14.4;11.6;;;;;;;23.95;100;98017.19;;;;
2021/07/14 05:47:34;;;;;;;21.2;12.2;;;;;;;24.4;100;98006.86;;;;
2021/07/14 05:57:34;;;;;;;24.7;11.7;;;;;;;25.03;100;97994.95;;;;
2021/07/14 06:07:35;;;;;;;22.6;13.3;;;;;;;25.14;100;97991.24;;;;
2021/07/14 06:17:36;;;;;;;21.3;11.5;;;;;;;26.15;100;97992.61;;;;
2021/07/14 06:27:37;;;;;;;13.7;10.7;;;;;;;26.57;100;97986.23;;;;
2021/07/14 06:37:38;;;;;;;27.5;11.9;;;;;;;26.83;100;97993.56;;;;
2021/07/14 06:47:39;;;;;;;17.7;12.2;;;;;;;27.21;100;98023.53;;;;
2021/07/14 06:57:40;;;;;;;14.3;10.3;;;;;;;27.78;100;98028.45;;;;
2021/07/14 07:07:41;;;;;;;18.2;12.9;;;;;;;28.14;100;98012.47;;;;
2021/07/14 07:17:42;;;;;;;16.7;12.6;;;;;;;28.57;100;98028.64;;;;
2021/07/14 07:27:44;;;;;;;14.9;12.7;;;;;;;28.68;100;98020.04;;;;
2021/07/14 07:37:44;;;;;;;14.4;12.1;;;;;;;28.55;100;98022.77;;;;
2021/07/14 07:47:46;;;;;;;20.2;10.8;;;;;;;29.36;100;98022.31;;;;
2021/07/14 07:57:47;;;;;;;11.9;9.4;;;;;;;29.26;100;98006.78;;;;
2021/07/14 08:07:49;;;;;;;16;10.1;;;;;;;29.6;100;98026.27;;;;
2021/07/14 08:17:50;;;;;;;12.9;10;;;;;;;29.91;100;98045.88;;;;
2021/07/14 08:27:51;;;;;;;10.6;9.5;;;;;;;30.35;100;98046.69;;;;
2021/07/14 08:37:53;;;;;;;12.5;9.2;;;;;;;31.11;100;98049.03;;;;
2021/07/14 08:47:54;;;;;;;13.7;10.9;;;;;;;31.45;95.0918;98054.41;;;;
2021/07/14 08:57:56;;;;;;;13.5;9.7;;;;;;;31.78;87.71094;98057.46;;;;
2021/07/14 09:07:58;;;;;;;14.4;8.2;;;;;;;32.27;93.34082;98069.3;;;;
2021/07/14 09:17:59;;;;;;;12.2;9.6;;;;;;;32.51;88.28809;98083.39;;;;
2021/07/14 09:28:03;;;;;;;13.2;9.8;;;;;;;32.61;86.71094;98093.32;;;;
2021/07/14 09:38:03;;;;;;;15.6;9.3;;;;;;;33.01;85.42383;98100.7;;;;
